Time;durP1;ratioP1;P1;durP2;ratioP2;P2;SDS_P1;SDS_P2;PMS_P1;PMS_P2;Temp;Humidity;BMP_temperature;BMP_pressure;BME280_temperature;BME280_humidity;BME280_pressure;Samples;Min_cycle;Max_cycle;Signal;HPM_P1;HPM_P2
2023/01/07 00:01:22;;;;;;;57.47;24.13;;;;;;;0.60;100.00;100104.13;5120236;22;20204;-69
2023/01/07 00:03:50;;;;;;;61.70;25.70;;;;;;;0.50;100.00;100104.78;5111632;22;21172;-71
2023/01/07 00:06:28;;;;;;;62.73;25.57;;;;;;;0.51;100.00;100111.69;5103489;22;20213;-73
2023/01/07 00:08:56;;;;;;;59.20;24.80;;;;;;;0.51;100.00;100109.06;5116172;22;21898;-70
2023/01/07 00:11:33;;;;;;;62.73;26.10;;;;;;;0.49;100.00;100118.78;5102823;22;20202;-69
2023/01/07 00:14:00;;;;;;;58.30;24.50;;;;;;;0.56;100.00;100120.09;5108793;22;20213;-71
2023/01/07 00:16:29;;;;;;;71.07;26.03;;;;;;;0.55;100.00;100129.75;5106676;22;20203;-71
2023/01/07 00:18:57;;;;;;;69.40;27.30;;;;;;;0.53;100.00;100130.75;5107955;22;20236;-71
2023/01/07 00:21:25;;;;;;;63.97;28.33;;;;;;;0.46;100.00;100129.44;5107925;22;20395;-70
2023/01/07 00:23:56;;;;;;;69.73;29.63;;;;;;;0.48;100.00;100132.81;5086650;22;21346;-70
2023/01/07 00:26:25;;;;;;;63.50;28.03;;;;;;;0.42;100.00;100133.97;5125309;22;20266;-70
2023/01/07 00:28:52;;;;;;;71.20;29.77;;;;;;;0.43;100.00;100140.09;5083829;22;20214;-70
2023/01/07 00:31:21;;;;;;;73.80;30.83;;;;;;;0.44;100.00;100144.38;5119373;22;20229;-71
2023/01/07 00:36:29;;;;;;;80.83;31.73;;;;;;;0.37;100.00;100151.72;5084361;22;20316;-71
2023/01/07 00:38:58;;;;;;;89.10;31.13;;;;;;;0.38;100.00;100153.44;5099104;22;20608;-71
2023/01/07 00:41:25;;;;;;;75.13;28.17;;;;;;;0.38;100.00;100153.44;5125528;22;20373;-71
2023/01/07 00:43:51;;;;;;;112.10;31.40;;;;;;;0.35;100.00;100153.59;5118118;22;21425;-69
2023/01/07 00:46:19;;;;;;;80.63;31.83;;;;;;;0.39;100.00;100144.63;5097393;22;20199;-69
2023/01/07 00:48:46;;;;;;;112.27;32.93;;;;;;;0.48;100.00;100143.28;5086962;22;20555;-71
2023/01/07 00:51:15;;;;;;;97.93;31.50;;;;;;;0.51;100.00;100141.31;5118263;22;20206;-69
2023/01/07 00:53:42;;;;;;;93.50;31.57;;;;;;;0.61;100.00;100133.78;5102371;22;20297;-71
2023/01/07 00:56:09;;;;;;;105.93;32.50;;;;;;;0.61;100.00;100146.88;5102268;22;21324;-69
2023/01/07 00:58:36;;;;;;;89.60;29.57;;;;;;;0.68;100.00;100145.59;5108888;22;22816;-73
2023/01/07 01:01:03;;;;;;;95.00;31.50;;;;;;;0.69;100.00;100162.97;5103123;22;22145;-70
2023/01/07 01:03:31;;;;;;;110.73;33.20;;;;;;;0.67;100.00;100162.22;5098654;22;23473;-71
2023/01/07 01:06:06;;;;;;;121.17;31.90;;;;;;;0.67;100.00;100177.94;5088265;22;22852;-70
2023/01/07 01:08:32;;;;;;;148.73;39.90;;;;;;;0.57;100.00;100177.63;5102670;22;20660;-71
2023/01/07 01:11:04;;;;;;;158.67;36.77;;;;;;;0.57;100.00;100176.78;5117270;22;20263;-70
2023/01/07 01:13:31;;;;;;;122.70;35.80;;;;;;;0.60;100.00;100176.59;5083582;22;22096;-70
2023/01/07 01:15:57;;;;;;;181.33;37.40;;;;;;;0.52;100.00;100176.22;5106558;22;23451;-70
2023/01/07 01:18:24;;;;;;;179.53;38.20;;;;;;;0.48;100.00;100175.53;5101737;22;20639;-71
2023/01/07 01:20:51;;;;;;;160.33;35.87;;;;;;;0.59;100.00;100172.31;5106045;22;20368;-70
2023/01/07 01:23:17;;;;;;;153.77;38.07;;;;;;;0.61;100.00;100173.06;5103316;22;21433;-70
2023/01/07 01:25:44;;;;;;;161.80;37.03;;;;;;;0.56;100.00;100165.47;5103264;22;20209;-71
2023/01/07 01:28:11;;;;;;;229.40;40.77;;;;;;;0.58;100.00;100168.81;5105790;22;20969;-73
2023/01/07 01:30:37;;;;;;;172.97;38.30;;;;;;;0.56;100.00;100162.00;5080508;22;20203;-69
2023/01/07 01:33:04;;;;;;;260.63;41.60;;;;;;;0.57;100.00;100171.56;5098426;22;20205;-70
2023/01/07 01:35:31;;;;;;;206.10;38.83;;;;;;;0.51;100.00;100169.28;5143935;22;21423;-70
2023/01/07 01:37:59;;;;;;;198.77;38.90;;;;;;;0.54;100.00;100171.69;5110740;22;21653;-70
2023/01/07 01:40:29;;;;;;;193.87;38.13;;;;;;;0.63;100.00;100166.81;5090593;22;20202;-69
2023/01/07 01:42:55;;;;;;;237.23;41.13;;;;;;;0.58;100.00;100179.28;5083223;22;20257;-70
2023/01/07 01:45:23;;;;;;;211.43;40.47;;;;;;;0.68;100.00;100182.25;5091675;22;20863;-70
2023/01/07 01:47:53;;;;;;;195.23;38.97;;;;;;;0.63;100.00;100179.03;5107636;22;20204;-70
2023/01/07 01:50:30;;;;;;;265.73;43.47;;;;;;;0.63;100.00;100184.28;5115080;22;20211;-69
2023/01/07 01:53:05;;;;;;;202.10;38.57;;;;;;;0.72;100.00;100188.16;5107106;22;20374;-69
2023/01/07 01:55:46;;;;;;;221.70;41.97;;;;;;;0.74;100.00;100191.53;5098441;22;22168;-71
2023/01/07 01:58:16;;;;;;;149.23;40.00;;;;;;;0.78;100.00;100187.81;5070402;22;21637;-69
2023/01/07 02:00:43;;;;;;;279.97;43.23;;;;;;;0.76;100.00;100193.13;5072934;22;20241;-70
2023/01/07 02:03:12;;;;;;;216.50;40.80;;;;;;;0.91;100.00;100193.16;5111346;22;23333;-69
2023/01/07 02:05:39;;;;;;;302.83;45.23;;;;;;;0.86;100.00;100189.97;5115249;22;20292;-69
2023/01/07 02:08:07;;;;;;;289.30;44.70;;;;;;;0.84;100.00;100188.28;5128340;22;20269;-71
2023/01/07 02:10:34;;;;;;;381.70;49.80;;;;;;;0.82;100.00;100191.94;5107988;22;20207;-70
2023/01/07 02:13:38;;;;;;;397.67;47.60;;;;;;;0.79;100.00;100182.47;5081004;22;20202;-70
2023/01/07 02:16:36;;;;;;;190.57;39.47;;;;;;;0.83;100.00;100183.13;5108313;22;21358;-70
2023/01/07 02:19:21;;;;;;;268.63;44.77;;;;;;;0.89;100.00;100174.94;5097207;22;23233;-70
2023/01/07 02:22:06;;;;;;;405.03;51.77;;;;;;;0.88;100.00;100177.63;5105645;22;20213;-69
2023/01/07 02:24:35;;;;;;;390.73;47.77;;;;;;;0.87;100.00;100181.16;5109280;22;20253;-69
2023/01/07 02:27:10;;;;;;;343.37;47.20;;;;;;;0.94;100.00;100178.13;5133669;22;23433;-71
2023/01/07 02:30:10;;;;;;;287.60;44.20;;;;;;;0.98;100.00;100176.16;5095704;22;20206;-70
2023/01/07 02:33:02;;;;;;;322.50;46.57;;;;;;;0.91;100.00;100166.97;5095742;22;20289;-70
2023/01/07 02:35:35;;;;;;;139.73;38.77;;;;;;;0.93;100.00;100171.19;5099234;22;20281;-69
2023/01/07 02:38:26;;;;;;;191.20;41.70;;;;;;;0.94;100.00;100172.03;5096876;22;21877;-68
2023/01/07 02:41:27;;;;;;;241.10;42.47;;;;;;;0.98;100.00;100170.91;5120192;22;21379;-69
2023/01/07 02:44:34;;;;;;;237.93;42.37;;;;;;;0.99;100.00;100173.44;5131677;22;21126;-71
2023/01/07 02:47:10;;;;;;;194.53;41.90;;;;;;;1.05;100.00;100175.72;5047203;23;20287;-69
2023/01/07 02:49:37;;;;;;;207.30;41.57;;;;;;;1.11;100.00;100178.91;5099325;22;20374;-69
2023/01/07 02:52:16;;;;;;;264.73;45.90;;;;;;;1.07;100.00;100174.78;5111773;22;21270;-72
2023/01/07 02:54:43;;;;;;;185.13;40.93;;;;;;;1.10;100.00;100178.06;5104975;22;20233;-70
2023/01/07 02:57:46;;;;;;;222.27;42.10;;;;;;;1.12;100.00;100180.56;5083638;22;20266;-69
2023/01/07 03:00:16;;;;;;;207.63;41.63;;;;;;;1.16;100.00;100182.91;5101507;22;20261;-70
2023/01/07 03:03:06;;;;;;;203.90;39.63;;;;;;;1.26;100.00;100172.72;5103433;22;21010;-69
2023/01/07 03:06:00;;;;;;;259.10;43.07;;;;;;;1.18;100.00;100175.81;5096192;22;21708;-71
2023/01/07 03:09:03;;;;;;;230.83;42.70;;;;;;;1.13;100.00;100175.25;5108912;22;20251;-68
2023/01/07 03:11:40;;;;;;;237.13;41.93;;;;;;;1.13;100.00;100177.88;5099677;22;20252;-70
2023/01/07 03:14:17;;;;;;;264.00;42.03;;;;;;;1.16;100.00;100182.91;5104671;22;26096;-70
2023/01/07 03:16:59;;;;;;;248.57;38.23;;;;;;;1.12;100.00;100176.16;5089134;22;21502;-69
2023/01/07 03:19:31;;;;;;;273.07;41.90;;;;;;;1.09;100.00;100178.97;5099042;22;20600;-70
2023/01/07 03:21:59;;;;;;;198.77;37.67;;;;;;;1.16;100.00;100179.47;5091106;22;20624;-69
2023/01/07 03:24:26;;;;;;;261.27;42.83;;;;;;;1.18;100.00;100186.31;5090803;22;20380;-71
2023/01/07 03:26:55;;;;;;;233.27;39.33;;;;;;;1.20;100.00;100183.59;5100292;22;20256;-70
2023/01/07 03:29:22;;;;;;;184.50;36.30;;;;;;;1.19;100.00;100182.72;5094817;22;20579;-70
2023/01/07 03:31:59;;;;;;;167.53;35.53;;;;;;;1.24;100.00;100185.94;5094169;22;22871;-70
2023/01/07 03:34:27;;;;;;;142.93;34.33;;;;;;;1.26;100.00;100184.09;5093080;22;21718;-70
2023/01/07 03:36:57;;;;;;;175.60;35.23;;;;;;;1.30;100.00;100189.97;5079545;22;20212;-70
2023/01/07 03:39:26;;;;;;;199.13;37.57;;;;;;;1.36;100.00;100188.75;5086483;22;20207;-69
2023/01/07 03:44:39;;;;;;;156.50;34.00;;;;;;;1.26;100.00;100189.31;5112124;22;20692;-69
2023/01/07 03:47:06;;;;;;;141.63;33.60;;;;;;;1.31;100.00;100185.56;5109052;22;20202;-68
2023/01/07 03:49:34;;;;;;;130.00;32.10;;;;;;;1.38;100.00;100181.63;5104485;22;23691;-70
2023/01/07 03:52:00;;;;;;;150.27;36.07;;;;;;;1.45;100.00;100196.06;5093378;23;20209;-70
2023/01/07 03:54:27;;;;;;;162.43;37.37;;;;;;;1.46;100.00;100182.03;5073117;23;20203;-71
2023/01/07 03:56:53;;;;;;;134.80;34.87;;;;;;;1.59;100.00;100187.34;5078881;23;20699;-70
2023/01/07 03:59:20;;;;;;;121.97;32.97;;;;;;;1.54;100.00;100181.56;5087013;23;22366;-69
2023/01/07 04:01:47;;;;;;;137.73;33.07;;;;;;;1.51;100.00;100187.00;5120237;23;20555;-68
2023/01/07 04:04:13;;;;;;;154.37;37.03;;;;;;;1.52;100.00;100194.75;5078955;23;20198;-69
2023/01/07 04:06:40;;;;;;;127.97;35.10;;;;;;;1.47;100.00;100186.31;5073828;23;20199;-70
2023/01/07 04:09:06;;;;;;;129.97;34.57;;;;;;;1.52;100.00;100183.41;5115806;23;20199;-70
2023/01/07 04:11:33;;;;;;;113.27;31.63;;;;;;;1.58;100.00;100189.13;5090833;23;20207;-69
2023/01/07 04:14:00;;;;;;;119.93;33.33;;;;;;;1.79;100.00;100191.38;5068237;23;20206;-69
2023/01/07 04:16:26;;;;;;;132.87;36.70;;;;;;;1.80;100.00;100187.81;5103124;23;20202;-69
2023/01/07 04:18:53;;;;;;;127.07;34.17;;;;;;;1.64;100.00;100186.16;5113262;23;20206;-71
2023/01/07 04:21:20;;;;;;;122.60;34.47;;;;;;;1.69;100.00;100196.38;5094029;23;20219;-69
2023/01/07 04:23:46;;;;;;;116.77;33.67;;;;;;;1.76;100.00;100188.97;5097773;23;20275;-70
2023/01/07 04:26:13;;;;;;;129.33;35.10;;;;;;;1.74;100.00;100182.97;5104016;23;20703;-70
2023/01/07 04:28:39;;;;;;;119.63;34.10;;;;;;;1.72;100.00;100180.44;5095278;23;22211;-69
2023/01/07 04:31:06;;;;;;;127.93;35.33;;;;;;;1.74;100.00;100182.97;5087028;23;20511;-70
2023/01/07 04:33:33;;;;;;;126.20;34.50;;;;;;;1.82;100.00;100185.94;5093199;23;20203;-68
2023/01/07 04:35:59;;;;;;;96.93;32.03;;;;;;;1.86;100.00;100187.44;5079902;23;20897;-70
2023/01/07 04:38:26;;;;;;;125.03;35.03;;;;;;;1.75;100.00;100190.72;5113004;23;21378;-69
2023/01/07 04:40:52;;;;;;;108.03;31.70;;;;;;;1.72;100.00;100190.91;5082377;23;20355;-68
2023/01/07 04:43:19;;;;;;;109.77;33.20;;;;;;;1.80;100.00;100182.56;5091195;23;20368;-68
2023/01/07 04:45:45;;;;;;;107.63;34.27;;;;;;;1.81;100.00;100190.34;5081295;23;20589;-68
2023/01/07 04:48:12;;;;;;;117.23;35.40;;;;;;;1.85;100.00;100186.59;5102240;22;20373;-69
2023/01/07 04:50:38;;;;;;;98.67;32.73;;;;;;;2.02;100.00;100190.78;5121524;22;21658;-70
2023/01/07 04:53:05;;;;;;;106.23;32.67;;;;;;;2.14;100.00;100188.34;5112186;22;20207;-69
2023/01/07 04:55:32;;;;;;;105.47;32.40;;;;;;;2.22;100.00;100184.25;5086486;22;20396;-71
2023/01/07 04:57:58;;;;;;;98.67;32.40;;;;;;;2.17;100.00;100188.13;5097460;22;25151;-68
2023/01/07 05:00:25;;;;;;;93.87;31.33;;;;;;;2.16;100.00;100194.34;5096273;22;20207;-69
2023/01/07 05:02:51;;;;;;;110.70;33.43;;;;;;;2.10;100.00;100204.25;5096055;22;26253;-71
2023/01/07 05:05:21;;;;;;;105.60;33.77;;;;;;;2.03;100.00;100204.75;5097864;22;20227;-70
2023/01/07 05:07:47;;;;;;;96.50;31.20;;;;;;;2.04;100.00;100216.94;5124977;22;20208;-70
2023/01/07 05:10:14;;;;;;;110.57;32.00;;;;;;;1.88;100.00;100209.19;5105663;22;22805;-69
2023/01/07 05:12:41;;;;;;;111.47;32.20;;;;;;;1.91;100.00;100203.75;5109744;22;20203;-70
2023/01/07 05:15:07;;;;;;;93.47;30.90;;;;;;;1.94;100.00;100221.06;5101135;22;26644;-72
2023/01/07 05:17:34;;;;;;;94.53;29.40;;;;;;;1.89;100.00;100216.09;5124140;22;20213;-69
2023/01/07 05:20:01;;;;;;;93.87;30.20;;;;;;;1.86;100.00;100218.94;5084961;22;21531;-69
2023/01/07 05:22:27;;;;;;;96.43;30.10;;;;;;;1.90;100.00;100225.69;5082247;23;20235;-69
2023/01/07 05:24:54;;;;;;;100.07;29.90;;;;;;;1.90;100.00;100220.44;5071871;22;21365;-69
2023/01/07 05:27:21;;;;;;;107.90;31.60;;;;;;;1.92;100.00;100229.06;5101572;22;21295;-68
2023/01/07 05:29:47;;;;;;;99.70;31.53;;;;;;;1.93;100.00;100233.34;5107001;22;20215;-71
2023/01/07 05:32:14;;;;;;;93.33;31.27;;;;;;;1.97;100.00;100236.66;5106155;22;20203;-72
2023/01/07 05:34:40;;;;;;;112.87;31.73;;;;;;;1.94;100.00;100234.19;5131938;22;21008;-69
2023/01/07 05:37:07;;;;;;;97.90;30.07;;;;;;;1.96;100.00;100235.78;5096936;22;20207;-70
2023/01/07 05:39:34;;;;;;;88.73;29.70;;;;;;;2.03;100.00;100237.06;5096694;22;20203;-68
2023/01/07 05:42:00;;;;;;;91.03;30.83;;;;;;;2.03;100.00;100237.06;5104313;22;20497;-70
2023/01/07 05:44:27;;;;;;;87.17;29.77;;;;;;;2.04;100.00;100241.41;5119007;22;20198;-70
2023/01/07 05:46:54;;;;;;;92.30;29.83;;;;;;;2.04;100.00;100243.19;5109480;22;20219;-68
2023/01/07 05:49:20;;;;;;;95.73;31.10;;;;;;;2.07;100.00;100241.22;5109723;22;20306;-68
2023/01/07 05:51:47;;;;;;;79.00;29.57;;;;;;;2.13;100.00;100247.00;5097299;22;20907;-69
2023/01/07 05:54:13;;;;;;;94.20;29.07;;;;;;;2.10;100.00;100248.03;5100684;22;20887;-71
2023/01/07 05:56:40;;;;;;;89.30;29.13;;;;;;;2.19;100.00;100244.84;5122066;22;20214;-69
2023/01/07 05:59:06;;;;;;;92.43;28.20;;;;;;;2.19;100.00;100247.47;5093799;22;21661;-69
2023/01/07 06:01:33;;;;;;;88.23;29.13;;;;;;;2.21;100.00;100239.50;5103461;22;20253;-69
2023/01/07 06:03:59;;;;;;;90.73;28.83;;;;;;;2.25;100.00;100246.25;5117596;22;20842;-70
2023/01/07 06:06:26;;;;;;;77.90;28.03;;;;;;;2.21;100.00;100239.50;5103797;23;20360;-70
2023/01/07 06:08:52;;;;;;;89.97;28.87;;;;;;;2.25;100.00;100243.63;5112361;22;20250;-69
2023/01/07 06:11:19;;;;;;;87.50;28.60;;;;;;;2.28;100.00;100244.28;5113288;22;20315;-70
2023/01/07 06:13:45;;;;;;;76.77;26.17;;;;;;;2.53;100.00;100247.97;5114695;22;21141;-71
2023/01/07 06:16:13;;;;;;;82.53;26.73;;;;;;;2.47;100.00;100251.00;5104726;22;20263;-70
2023/01/07 06:18:39;;;;;;;71.60;25.87;;;;;;;2.42;100.00;100253.91;5093890;22;20203;-71
2023/01/07 06:21:06;;;;;;;76.43;25.43;;;;;;;2.43;100.00;100255.56;5113659;22;20213;-67
2023/01/07 06:23:33;;;;;;;81.57;25.63;;;;;;;2.39;100.00;100261.97;5100990;22;21556;-72
2023/01/07 06:25:59;;;;;;;78.10;26.30;;;;;;;2.45;100.00;100258.13;5103567;22;20270;-71
2023/01/07 06:28:26;;;;;;;77.37;26.47;;;;;;;2.47;100.00;100267.59;5116569;22;20696;-69
2023/01/07 06:30:52;;;;;;;78.47;25.93;;;;;;;2.44;100.00;100267.78;5105206;22;20217;-71
2023/01/07 06:33:20;;;;;;;80.20;27.13;;;;;;;2.47;100.00;100272.84;5094087;22;20204;-69
2023/01/07 06:35:46;;;;;;;67.83;25.93;;;;;;;2.57;100.00;100277.50;5102832;22;20484;-71
2023/01/07 06:38:13;;;;;;;76.30;26.30;;;;;;;2.56;100.00;100281.91;5102294;22;23221;-69
2023/01/07 06:40:39;;;;;;;83.53;27.23;;;;;;;2.63;100.00;100277.13;5117171;22;20209;-70
2023/01/07 06:43:06;;;;;;;72.13;27.13;;;;;;;2.68;100.00;100285.53;5112117;22;21803;-69
2023/01/07 06:45:32;;;;;;;68.70;24.57;;;;;;;2.78;100.00;100286.63;5086551;22;20217;-70
2023/01/07 06:47:59;;;;;;;70.63;25.77;;;;;;;2.83;100.00;100284.53;5090606;22;20247;-70
2023/01/07 06:50:26;;;;;;;76.07;26.50;;;;;;;2.76;100.00;100283.25;5127132;23;20208;-70
2023/01/07 06:52:52;;;;;;;84.47;25.73;;;;;;;2.78;100.00;100289.25;5092123;23;20305;-69
2023/01/07 06:55:19;;;;;;;76.60;25.33;;;;;;;2.86;100.00;100294.88;5057846;23;20222;-70
2023/01/07 06:57:45;;;;;;;74.40;26.40;;;;;;;2.84;100.00;100302.00;5081684;23;20198;-71
2023/01/07 07:00:12;;;;;;;76.50;26.20;;;;;;;2.83;100.00;100304.72;5090680;23;20499;-70
2023/01/07 07:02:39;;;;;;;81.73;27.03;;;;;;;2.78;100.00;100306.81;5094104;23;25171;-70
2023/01/07 07:05:06;;;;;;;71.37;24.87;;;;;;;2.86;100.00;100315.91;5089575;23;20312;-71
2023/01/07 07:07:33;;;;;;;83.07;26.90;;;;;;;2.76;100.00;100312.16;5115634;23;20606;-71
2023/01/07 07:10:03;;;;;;;79.70;27.43;;;;;;;2.76;100.00;100314.78;5086066;23;20214;-68
2023/01/07 07:12:30;;;;;;;70.97;25.90;;;;;;;2.80;100.00;100321.53;5088360;23;20985;-68
2023/01/07 07:14:56;;;;;;;78.10;28.50;;;;;;;2.75;100.00;100321.00;5087231;23;20429;-67
2023/01/07 07:17:23;;;;;;;78.93;27.70;;;;;;;2.81;100.00;100323.25;5072447;23;20203;-72
2023/01/07 07:19:49;;;;;;;87.53;27.47;;;;;;;2.82;100.00;100324.06;5065069;23;20207;-68
2023/01/07 07:22:16;;;;;;;85.90;26.33;;;;;;;2.88;100.00;100326.28;5089838;23;20210;-68
2023/01/07 07:24:42;;;;;;;75.80;25.40;;;;;;;2.87;100.00;100328.09;5085456;23;20206;-68
2023/01/07 07:27:09;;;;;;;80.67;27.87;;;;;;;2.87;100.00;100322.81;5078695;23;20377;-67
2023/01/07 07:29:35;;;;;;;78.00;27.33;;;;;;;2.93;100.00;100332.13;5070079;23;22670;-70
2023/01/07 07:32:02;;;;;;;89.53;28.47;;;;;;;2.99;100.00;100323.81;5101169;23;20266;-70
2023/01/07 07:34:29;;;;;;;80.13;28.17;;;;;;;3.00;100.00;100328.16;5108244;23;21327;-69
2023/01/07 07:36:55;;;;;;;93.20;29.70;;;;;;;3.04;100.00;100328.78;5078423;23;20215;-69
2023/01/07 07:39:22;;;;;;;93.07;28.73;;;;;;;3.07;100.00;100329.44;5070731;23;20225;-70
2023/01/07 07:41:49;;;;;;;104.57;30.67;;;;;;;3.06;100.00;100327.75;5112213;23;20207;-69
2023/01/07 07:44:15;;;;;;;105.67;30.10;;;;;;;3.10;100.00;100333.66;5121077;22;20205;-70
2023/01/07 07:46:42;;;;;;;92.03;29.80;;;;;;;3.13;100.00;100334.28;5125275;22;20665;-69
2023/01/07 07:49:10;;;;;;;99.20;29.70;;;;;;;3.17;100.00;100340.19;5104599;22;20222;-69
2023/01/07 07:51:37;;;;;;;116.97;31.80;;;;;;;3.13;100.00;100339.53;5133186;22;20214;-70
2023/01/07 07:54:03;;;;;;;127.53;31.93;;;;;;;3.17;100.00;100334.94;5085926;22;20200;-70
2023/01/07 07:56:30;;;;;;;124.93;31.97;;;;;;;3.20;100.00;100328.63;5137451;22;20202;-69
2023/01/07 07:58:57;;;;;;;114.33;31.23;;;;;;;3.28;100.00;100336.88;5106021;22;20598;-71
2023/01/07 08:01:23;;;;;;;127.00;32.90;;;;;;;3.33;100.00;100330.38;5097243;22;20246;-71
2023/01/07 08:03:50;;;;;;;136.00;32.83;;;;;;;3.38;100.00;100333.53;5074924;23;22041;-72
2023/01/07 08:06:17;;;;;;;106.07;29.37;;;;;;;3.50;100.00;100346.81;5098599;23;20225;-72
2023/01/07 08:08:45;;;;;;;129.97;30.73;;;;;;;3.48;100.00;100354.81;5104310;22;20324;-70
2023/01/07 08:11:12;;;;;;;119.00;32.40;;;;;;;3.47;100.00;100347.03;5087126;23;23666;-73
2023/01/07 08:13:39;;;;;;;138.63;32.40;;;;;;;3.38;100.00;100354.56;5083783;23;20203;-71
2023/01/07 08:16:06;;;;;;;137.20;33.43;;;;;;;3.43;100.00;100356.06;5097224;22;25011;-69
2023/01/07 08:18:33;;;;;;;138.20;33.13;;;;;;;3.43;100.00;100354.25;5112894;22;20211;-71
2023/01/07 08:20:59;;;;;;;120.03;33.03;;;;;;;3.44;100.00;100347.22;5121509;22;20276;-72
2023/01/07 08:23:27;;;;;;;128.90;32.67;;;;;;;3.47;100.00;100349.66;5125032;22;20279;-72
2023/01/07 08:25:58;;;;;;;143.83;34.40;;;;;;;3.49;100.00;100339.84;5092310;22;20365;-69
2023/01/07 08:28:24;;;;;;;128.37;34.67;;;;;;;3.59;100.00;100343.56;5120152;22;21118;-70
2023/01/07 08:30:51;;;;;;;143.73;34.83;;;;;;;3.58;100.00;100345.38;5104473;22;21878;-70
2023/01/07 08:33:18;;;;;;;137.77;34.50;;;;;;;3.61;100.00;100346.13;5098640;22;20258;-70
2023/01/07 08:35:45;;;;;;;124.60;35.33;;;;;;;3.74;100.00;100345.16;5124053;22;22703;-70
2023/01/07 08:38:11;;;;;;;126.40;33.80;;;;;;;3.74;100.00;100344.31;5120777;22;25373;-72
2023/01/07 08:40:38;;;;;;;115.43;33.50;;;;;;;3.83;100.00;100346.34;5115300;22;20221;-70
2023/01/07 08:43:06;;;;;;;122.20;33.77;;;;;;;3.81;100.00;100351.69;5118811;22;20216;-73
2023/01/07 08:45:33;;;;;;;119.17;36.30;;;;;;;3.87;100.00;100354.88;5129088;22;20552;-69
2023/01/07 08:48:00;;;;;;;114.07;32.67;;;;;;;3.83;100.00;100356.88;5121554;22;20275;-70
2023/01/07 08:50:28;;;;;;;109.90;32.83;;;;;;;3.88;100.00;100362.66;5104894;22;20203;-70
2023/01/07 08:52:55;;;;;;;113.87;32.53;;;;;;;3.88;100.00;100362.66;5129416;22;25055;-69
2023/01/07 08:55:22;;;;;;;106.07;34.90;;;;;;;3.88;100.00;100362.66;5101780;22;23983;-69
2023/01/07 08:57:49;;;;;;;103.83;34.57;;;;;;;3.87;100.00;100360.16;5093477;22;20409;-69
2023/01/07 09:00:17;;;;;;;94.00;35.03;;;;;;;3.97;100.00;100351.50;5135901;22;20389;-68
2023/01/07 09:02:46;;;;;;;101.03;32.83;;;;;;;4.02;100.00;100349.38;5103153;22;21971;-71
2023/01/07 09:05:12;;;;;;;100.97;32.77;;;;;;;3.93;100.00;100354.44;5119273;22;20214;-70
2023/01/07 09:07:39;;;;;;;92.60;31.70;;;;;;;3.93;100.00;100359.72;5103424;22;20502;-68
2023/01/07 09:10:08;;;;;;;91.07;31.53;;;;;;;4.07;100.00;100350.88;5080258;22;20291;-70
2023/01/07 09:12:35;;;;;;;101.87;33.70;;;;;;;3.99;100.00;100365.41;5110106;22;20288;-70
2023/01/07 09:15:02;;;;;;;96.97;30.33;;;;;;;4.08;100.00;100361.31;5110548;22;20203;-71
2023/01/07 09:17:29;;;;;;;106.10;31.13;;;;;;;4.09;100.00;100357.72;5112902;22;21731;-71
2023/01/07 09:19:56;;;;;;;93.87;33.03;;;;;;;4.23;100.00;100365.50;5084160;22;20238;-71
2023/01/07 09:22:22;;;;;;;82.93;28.90;;;;;;;4.14;100.00;100362.66;5106129;22;20743;-69
2023/01/07 09:24:49;;;;;;;91.30;29.77;;;;;;;4.19;100.00;100358.78;5118308;22;20610;-70
2023/01/07 09:27:16;;;;;;;89.43;28.87;;;;;;;4.08;100.00;100358.69;5103736;22;20222;-70
2023/01/07 09:29:42;;;;;;;81.03;27.30;;;;;;;4.12;100.00;100365.44;5088437;22;20277;-71
2023/01/07 09:32:09;;;;;;;76.40;26.87;;;;;;;4.00;100.00;100361.84;5131219;22;20211;-71
2023/01/07 09:34:37;;;;;;;80.87;26.00;;;;;;;3.93;100.00;100364.97;5111640;22;20203;-74
2023/01/07 09:37:04;;;;;;;88.87;27.60;;;;;;;3.87;100.00;100360.97;5120413;22;20557;-74
2023/01/07 09:39:31;;;;;;;88.20;27.03;;;;;;;3.95;100.00;100363.09;5108885;22;20900;-74
2023/01/07 09:42:25;;;;;;;89.07;26.90;;;;;;;3.97;100.00;100355.94;5122203;22;20312;-78
2023/01/07 09:45:09;;;;;;;80.63;25.10;;;;;;;4.13;100.00;100359.19;5103480;23;20304;-71
2023/01/07 09:47:37;;;;;;;85.80;24.97;;;;;;;4.02;100.00;100372.25;5109641;22;20203;-70
2023/01/07 09:50:19;;;;;;;67.43;23.77;;;;;;;3.80;100.00;100365.81;5099167;22;20213;-72
2023/01/07 09:52:49;;;;;;;73.77;25.67;;;;;;;3.77;100.00;100368.66;5089231;22;25299;-71
2023/01/07 09:55:23;;;;;;;75.23;26.43;;;;;;;3.83;100.00;100369.19;5099934;22;20203;-72
2023/01/07 09:57:49;;;;;;;66.63;24.67;;;;;;;3.68;100.00;100364.00;5106758;22;20900;-75
2023/01/07 10:00:20;;;;;;;67.40;24.90;;;;;;;3.73;100.00;100368.97;5102672;22;20199;-75
2023/01/07 10:02:53;;;;;;;75.73;26.00;;;;;;;3.80;100.00;100357.91;5089722;22;21941;-73
2023/01/07 10:05:27;;;;;;;80.10;24.53;;;;;;;3.77;100.00;100359.94;5114606;22;20224;-71
2023/01/07 10:08:07;;;;;;;65.27;25.10;;;;;;;3.86;100.00;100358.44;5094619;22;22219;-72
2023/01/07 10:11:16;;;;;;;65.03;23.40;;;;;;;3.87;100.00;100362.78;5131109;22;21646;-75
2023/01/07 10:13:53;;;;;;;75.23;25.60;;;;;;;4.04;100.00;100362.47;5118520;22;20292;-71
2023/01/07 10:16:35;;;;;;;71.37;24.40;;;;;;;4.20;100.00;100357.00;5104402;22;21517;-71
2023/01/07 10:19:47;;;;;;;76.47;25.53;;;;;;;4.10;100.00;100355.94;5115786;22;20238;-70
2023/01/07 10:22:32;;;;;;;63.40;24.47;;;;;;;4.28;100.00;100353.81;5081366;22;22925;-71
2023/01/07 10:25:03;;;;;;;68.30;24.33;;;;;;;4.27;100.00;100346.88;5100751;22;21738;-71
2023/01/07 10:27:34;;;;;;;61.53;24.37;;;;;;;4.43;100.00;100342.22;5119728;22;20203;-72
2023/01/07 10:30:06;;;;;;;73.90;26.43;;;;;;;4.63;100.00;100338.16;5112923;23;20685;-71
2023/01/07 10:32:35;;;;;;;62.43;24.93;;;;;;;4.93;100.00;100340.38;5128346;22;20309;-71
2023/01/07 10:35:03;;;;;;;63.03;24.77;;;;;;;5.01;100.00;100342.47;5117212;22;21790;-71
2023/01/07 10:37:40;;;;;;;64.10;24.40;;;;;;;5.18;100.00;100344.72;5112732;22;21322;-70
2023/01/07 10:40:10;;;;;;;62.77;25.13;;;;;;;5.16;100.00;100340.53;5104309;22;20403;-71
2023/01/07 10:42:56;;;;;;;66.50;25.63;;;;;;;5.20;100.00;100340.19;5099882;22;20203;-72
2023/01/07 10:45:32;;;;;;;60.63;26.10;;;;;;;5.21;100.00;100341.00;5106052;22;22154;-71
2023/01/07 10:48:20;;;;;;;60.90;24.30;;;;;;;5.17;100.00;100334.28;5114129;22;20209;-70
2023/01/07 10:51:05;;;;;;;58.23;23.50;;;;;;;5.21;100.00;100335.75;5129413;22;20297;-70
2023/01/07 10:53:50;;;;;;;65.33;24.90;;;;;;;5.18;100.00;100330.69;5120441;22;20202;-72
2023/01/07 10:56:31;;;;;;;59.23;24.27;;;;;;;5.15;100.00;100323.00;5110027;22;20202;-73
2023/01/07 10:59:02;;;;;;;59.70;24.23;;;;;;;5.11;100.00;100332.09;5106120;22;22275;-71
2023/01/07 11:01:34;;;;;;;60.70;24.87;;;;;;;4.89;100.00;100323.09;5081938;23;21382;-70
2023/01/07 11:04:02;;;;;;;57.30;24.83;;;;;;;4.92;100.00;100325.53;5107477;22;20214;-71
2023/01/07 11:06:35;;;;;;;56.33;23.17;;;;;;;5.07;100.00;100329.66;5134384;22;20272;-73
2023/01/07 11:09:05;;;;;;;53.93;23.17;;;;;;;5.10;100.00;100333.03;5113064;22;20518;-73
2023/01/07 11:11:32;;;;;;;54.57;22.47;;;;;;;5.10;100.00;100322.50;5152559;22;20228;-71
2023/01/07 11:14:02;;;;;;;49.57;21.53;;;;;;;5.02;100.00;100321.25;5135594;22;20204;-73
2023/01/07 11:16:34;;;;;;;54.60;22.47;;;;;;;4.99;100.00;100320.66;5138500;22;21068;-70
2023/01/07 11:19:09;;;;;;;51.43;21.20;;;;;;;4.96;100.00;100324.34;5107890;22;20199;-71
2023/01/07 11:21:44;;;;;;;52.87;20.87;;;;;;;4.98;100.00;100326.88;5131723;22;22461;-71
2023/01/07 11:24:23;;;;;;;49.37;20.80;;;;;;;4.96;100.00;100320.88;5205880;22;21460;-71